sensor_id;sensor_type;location;lat;lon;timestamp;P1;durP1;ratioP1;P2;durP2;ratioP2
73747;SDS011;62056;52.130;5.428;2023-02-10T00:03:34;24.17;;;9.02;;
73747;SDS011;62056;52.130;5.428;2023-02-10T00:06:01;14.70;;;8.20;;
73747;SDS011;62056;52.130;5.428;2023-02-10T00:08:29;13.63;;;8.13;;
73747;SDS011;62056;52.130;5.428;2023-02-10T00:11:03;11.38;;;6.80;;
73747;SDS011;62056;52.130;5.428;2023-02-10T00:13:33;14.93;;;7.45;;
73747;SDS011;62056;52.130;5.428;2023-02-10T00:16:00;18.13;;;7.03;;
73747;SDS011;62056;52.130;5.428;2023-02-10T00:18:28;11.23;;;7.10;;
73747;SDS011;62056;52.130;5.428;2023-02-10T00:20:55;8.85;;;5.25;;
73747;SDS011;62056;52.130;5.428;2023-02-10T00:23:21;14.13;;;6.95;;
73747;SDS011;62056;52.130;5.428;2023-02-10T00:25:49;9.27;;;5.85;;
73747;SDS011;62056;52.130;5.428;2023-02-10T00:28:15;13.85;;;7.05;;
73747;SDS011;62056;52.130;5.428;2023-02-10T00:30:42;11.33;;;7.40;;
73747;SDS011;62056;52.130;5.428;2023-02-10T00:33:09;11.48;;;5.95;;
73747;SDS011;62056;52.130;5.428;2023-02-10T00:35:36;9.77;;;5.88;;
73747;SDS011;62056;52.130;5.428;2023-02-10T00:38:03;11.50;;;6.78;;
73747;SDS011;62056;52.130;5.428;2023-02-10T00:40:30;10.85;;;6.45;;
73747;SDS011;62056;52.130;5.428;2023-02-10T00:42:56;12.90;;;5.77;;
73747;SDS011;62056;52.130;5.428;2023-02-10T00:45:23;12.60;;;5.43;;
73747;SDS011;62056;52.130;5.428;2023-02-10T00:47:49;9.80;;;6.70;;
73747;SDS011;62056;52.130;5.428;2023-02-10T00:50:16;12.27;;;7.45;;
73747;SDS011;62056;52.130;5.428;2023-02-10T00:52:43;15.20;;;7.38;;
73747;SDS011;62056;52.130;5.428;2023-02-10T00:55:09;14.37;;;7.23;;
73747;SDS011;62056;52.130;5.428;2023-02-10T00:57:36;13.23;;;7.50;;
73747;SDS011;62056;52.130;5.428;2023-02-10T01:00:03;12.20;;;7.13;;
73747;SDS011;62056;52.130;5.428;2023-02-10T01:02:31;18.42;;;7.82;;
73747;SDS011;62056;52.130;5.428;2023-02-10T01:04:58;7.55;;;4.65;;
73747;SDS011;62056;52.130;5.428;2023-02-10T01:07:25;11.07;;;5.37;;
73747;SDS011;62056;52.130;5.428;2023-02-10T01:09:52;20.10;;;7.43;;
73747;SDS011;62056;52.130;5.428;2023-02-10T01:12:19;20.23;;;8.13;;
73747;SDS011;62056;52.130;5.428;2023-02-10T01:14:45;12.13;;;6.38;;
73747;SDS011;62056;52.130;5.428;2023-02-10T01:17:12;13.32;;;7.18;;
73747;SDS011;62056;52.130;5.428;2023-02-10T01:19:38;10.23;;;5.43;;
73747;SDS011;62056;52.130;5.428;2023-02-10T01:22:05;10.02;;;5.55;;
73747;SDS011;62056;52.130;5.428;2023-02-10T01:24:31;13.65;;;7.53;;
73747;SDS011;62056;52.130;5.428;2023-02-10T01:26:58;19.13;;;7.85;;
73747;SDS011;62056;52.130;5.428;2023-02-10T01:29:25;10.23;;;6.95;;
73747;SDS011;62056;52.130;5.428;2023-02-10T01:31:52;7.57;;;6.00;;
73747;SDS011;62056;52.130;5.428;2023-02-10T01:34:18;16.85;;;7.30;;
73747;SDS011;62056;52.130;5.428;2023-02-10T01:36:45;14.15;;;6.75;;
73747;SDS011;62056;52.130;5.428;2023-02-10T01:39:12;11.95;;;6.53;;
73747;SDS011;62056;52.130;5.428;2023-02-10T01:41:39;13.57;;;7.50;;
73747;SDS011;62056;52.130;5.428;2023-02-10T01:44:55;15.77;;;7.70;;
73747;SDS011;62056;52.130;5.428;2023-02-10T01:46:53;14.45;;;7.85;;
73747;SDS011;62056;52.130;5.428;2023-02-10T01:49:24;13.27;;;6.50;;
73747;SDS011;62056;52.130;5.428;2023-02-10T01:52:00;10.63;;;6.47;;
73747;SDS011;62056;52.130;5.428;2023-02-10T01:54:30;10.35;;;6.22;;
73747;SDS011;62056;52.130;5.428;2023-02-10T01:57:00;14.00;;;7.43;;
73747;SDS011;62056;52.130;5.428;2023-02-10T01:59:30;31.13;;;10.65;;
73747;SDS011;62056;52.130;5.428;2023-02-10T02:01:59;24.10;;;10.93;;
73747;SDS011;62056;52.130;5.428;2023-02-10T02:04:29;13.85;;;8.73;;
73747;SDS011;62056;52.130;5.428;2023-02-10T02:06:56;17.95;;;8.10;;
73747;SDS011;62056;52.130;5.428;2023-02-10T02:09:23;12.23;;;7.17;;
73747;SDS011;62056;52.130;5.428;2023-02-10T02:11:53;24.92;;;12.15;;
73747;SDS011;62056;52.130;5.428;2023-02-10T02:30:36;11.93;;;6.20;;
73747;SDS011;62056;52.130;5.428;2023-02-10T02:33:18;8.80;;;6.72;;
73747;SDS011;62056;52.130;5.428;2023-02-10T02:35:53;7.20;;;5.20;;
73747;SDS011;62056;52.130;5.428;2023-02-10T02:38:25;7.78;;;5.00;;
73747;SDS011;62056;52.130;5.428;2023-02-10T02:40:52;7.63;;;5.40;;
73747;SDS011;62056;52.130;5.428;2023-02-10T02:43:19;7.72;;;4.18;;
73747;SDS011;62056;52.130;5.428;2023-02-10T02:48:31;11.03;;;6.37;;
73747;SDS011;62056;52.130;5.428;2023-02-10T02:51:14;12.88;;;6.88;;
73747;SDS011;62056;52.130;5.428;2023-02-10T02:53:57;12.45;;;6.53;;
73747;SDS011;62056;52.130;5.428;2023-02-10T02:56:41;7.53;;;4.90;;
73747;SDS011;62056;52.130;5.428;2023-02-10T03:01:53;9.10;;;4.57;;
73747;SDS011;62056;52.130;5.428;2023-02-10T03:04:26;7.45;;;4.28;;
73747;SDS011;62056;52.130;5.428;2023-02-10T03:06:55;13.77;;;8.65;;
73747;SDS011;62056;52.130;5.428;2023-02-10T03:09:22;13.38;;;5.70;;
73747;SDS011;62056;52.130;5.428;2023-02-10T03:11:49;28.92;;;9.57;;
73747;SDS011;62056;52.130;5.428;2023-02-10T03:14:16;11.33;;;7.33;;
73747;SDS011;62056;52.130;5.428;2023-02-10T03:16:42;15.45;;;7.75;;
73747;SDS011;62056;52.130;5.428;2023-02-10T03:19:09;12.15;;;7.05;;
73747;SDS011;62056;52.130;5.428;2023-02-10T03:21:36;9.57;;;4.78;;
73747;SDS011;62056;52.130;5.428;2023-02-10T03:24:03;18.65;;;8.80;;
73747;SDS011;62056;52.130;5.428;2023-02-10T03:26:30;21.40;;;11.07;;
73747;SDS011;62056;52.130;5.428;2023-02-10T03:28:57;36.80;;;17.98;;
73747;SDS011;62056;52.130;5.428;2023-02-10T03:31:23;40.28;;;20.63;;
73747;SDS011;62056;52.130;5.428;2023-02-10T03:33:50;52.13;;;24.33;;
73747;SDS011;62056;52.130;5.428;2023-02-10T03:36:17;20.65;;;11.88;;
73747;SDS011;62056;52.130;5.428;2023-02-10T03:38:44;14.83;;;10.60;;
73747;SDS011;62056;52.130;5.428;2023-02-10T03:41:11;19.55;;;10.23;;
73747;SDS011;62056;52.130;5.428;2023-02-10T03:43:39;18.60;;;9.45;;
73747;SDS011;62056;52.130;5.428;2023-02-10T03:46:08;17.08;;;10.40;;
73747;SDS011;62056;52.130;5.428;2023-02-10T03:48:36;23.50;;;11.48;;
73747;SDS011;62056;52.130;5.428;2023-02-10T03:51:03;21.83;;;11.53;;
73747;SDS011;62056;52.130;5.428;2023-02-10T03:53:32;13.38;;;8.73;;
73747;SDS011;62056;52.130;5.428;2023-02-10T03:55:59;17.17;;;11.27;;
73747;SDS011;62056;52.130;5.428;2023-02-10T03:58:26;12.57;;;8.57;;
73747;SDS011;62056;52.130;5.428;2023-02-10T04:00:53;22.52;;;9.18;;
73747;SDS011;62056;52.130;5.428;2023-02-10T04:03:19;16.23;;;8.40;;
73747;SDS011;62056;52.130;5.428;2023-02-10T04:05:46;17.90;;;9.00;;
73747;SDS011;62056;52.130;5.428;2023-02-10T04:08:13;23.05;;;10.35;;
73747;SDS011;62056;52.130;5.428;2023-02-10T04:10:42;17.75;;;10.35;;
73747;SDS011;62056;52.130;5.428;2023-02-10T04:13:08;18.27;;;10.23;;
73747;SDS011;62056;52.130;5.428;2023-02-10T04:15:35;18.63;;;11.07;;
73747;SDS011;62056;52.130;5.428;2023-02-10T04:18:02;20.98;;;10.73;;
73747;SDS011;62056;52.130;5.428;2023-02-10T04:20:28;29.35;;;13.57;;
73747;SDS011;62056;52.130;5.428;2023-02-10T04:22:55;29.42;;;13.43;;
73747;SDS011;62056;52.130;5.428;2023-02-10T04:25:22;25.65;;;12.95;;
73747;SDS011;62056;52.130;5.428;2023-02-10T04:27:49;13.93;;;8.13;;
73747;SDS011;62056;52.130;5.428;2023-02-10T04:30:16;24.90;;;10.70;;
73747;SDS011;62056;52.130;5.428;2023-02-10T04:32:42;19.13;;;10.10;;
73747;SDS011;62056;52.130;5.428;2023-02-10T04:35:09;22.10;;;12.63;;
73747;SDS011;62056;52.130;5.428;2023-02-10T04:37:36;25.27;;;13.75;;
73747;SDS011;62056;52.130;5.428;2023-02-10T04:40:03;18.60;;;10.03;;
73747;SDS011;62056;52.130;5.428;2023-02-10T04:42:30;18.13;;;10.90;;
73747;SDS011;62056;52.130;5.428;2023-02-10T04:44:57;17.67;;;8.68;;
73747;SDS011;62056;52.130;5.428;2023-02-10T04:47:24;22.50;;;10.93;;
73747;SDS011;62056;52.130;5.428;2023-02-10T04:49:52;20.80;;;10.00;;
73747;SDS011;62056;52.130;5.428;2023-02-10T04:52:19;23.57;;;13.40;;
73747;SDS011;62056;52.130;5.428;2023-02-10T04:54:46;17.98;;;9.93;;
73747;SDS011;62056;52.130;5.428;2023-02-10T04:57:13;16.08;;;9.00;;
73747;SDS011;62056;52.130;5.428;2023-02-10T04:59:39;22.33;;;11.18;;
73747;SDS011;62056;52.130;5.428;2023-02-10T05:02:06;15.10;;;9.77;;
73747;SDS011;62056;52.130;5.428;2023-02-10T05:04:33;20.60;;;10.87;;
73747;SDS011;62056;52.130;5.428;2023-02-10T05:07:00;19.60;;;11.98;;
73747;SDS011;62056;52.130;5.428;2023-02-10T05:09:26;19.38;;;11.35;;
73747;SDS011;62056;52.130;5.428;2023-02-10T05:11:53;15.20;;;8.77;;
73747;SDS011;62056;52.130;5.428;2023-02-10T05:14:20;28.15;;;15.13;;
73747;SDS011;62056;52.130;5.428;2023-02-10T05:16:47;19.30;;;10.47;;
73747;SDS011;62056;52.130;5.428;2023-02-10T05:19:13;44.45;;;21.30;;
73747;SDS011;62056;52.130;5.428;2023-02-10T05:21:40;57.88;;;30.75;;
73747;SDS011;62056;52.130;5.428;2023-02-10T05:24:06;21.17;;;12.52;;
73747;SDS011;62056;52.130;5.428;2023-02-10T05:26:33;34.55;;;17.55;;
73747;SDS011;62056;52.130;5.428;2023-02-10T05:29:00;39.00;;;19.47;;
73747;SDS011;62056;52.130;5.428;2023-02-10T05:31:26;27.13;;;13.13;;
73747;SDS011;62056;52.130;5.428;2023-02-10T05:33:53;18.33;;;10.65;;
73747;SDS011;62056;52.130;5.428;2023-02-10T05:36:20;21.08;;;11.32;;
73747;SDS011;62056;52.130;5.428;2023-02-10T05:38:47;16.83;;;11.05;;
73747;SDS011;62056;52.130;5.428;2023-02-10T05:41:32;34.63;;;15.33;;
73747;SDS011;62056;52.130;5.428;2023-02-10T05:44:01;22.90;;;12.75;;
73747;SDS011;62056;52.130;5.428;2023-02-10T05:46:28;21.85;;;11.52;;
73747;SDS011;62056;52.130;5.428;2023-02-10T05:48:55;20.52;;;11.05;;
73747;SDS011;62056;52.130;5.428;2023-02-10T05:51:21;21.42;;;11.90;;
73747;SDS011;62056;52.130;5.428;2023-02-10T05:53:48;18.23;;;10.17;;
73747;SDS011;62056;52.130;5.428;2023-02-10T05:56:14;18.42;;;10.68;;
73747;SDS011;62056;52.130;5.428;2023-02-10T05:58:41;17.35;;;10.98;;
73747;SDS011;62056;52.130;5.428;2023-02-10T06:01:09;30.10;;;16.58;;
73747;SDS011;62056;52.130;5.428;2023-02-10T06:03:37;22.45;;;12.40;;
73747;SDS011;62056;52.130;5.428;2023-02-10T06:06:04;24.40;;;13.57;;
73747;SDS011;62056;52.130;5.428;2023-02-10T06:08:31;19.90;;;11.20;;
73747;SDS011;62056;52.130;5.428;2023-02-10T06:10:57;21.90;;;11.07;;
73747;SDS011;62056;52.130;5.428;2023-02-10T06:13:24;33.08;;;16.58;;
73747;SDS011;62056;52.130;5.428;2023-02-10T06:15:50;39.95;;;21.65;;
73747;SDS011;62056;52.130;5.428;2023-02-10T06:18:17;59.67;;;28.63;;
73747;SDS011;62056;52.130;5.428;2023-02-10T06:20:47;42.88;;;21.30;;
73747;SDS011;62056;52.130;5.428;2023-02-10T06:23:14;37.40;;;18.85;;
73747;SDS011;62056;52.130;5.428;2023-02-10T06:25:41;27.30;;;14.20;;
73747;SDS011;62056;52.130;5.428;2023-02-10T06:28:07;25.80;;;14.13;;
73747;SDS011;62056;52.130;5.428;2023-02-10T06:30:34;26.53;;;13.07;;
73747;SDS011;62056;52.130;5.428;2023-02-10T06:33:01;26.60;;;14.60;;
73747;SDS011;62056;52.130;5.428;2023-02-10T06:35:28;28.75;;;15.63;;
73747;SDS011;62056;52.130;5.428;2023-02-10T06:37:55;28.95;;;15.82;;
73747;SDS011;62056;52.130;5.428;2023-02-10T06:40:21;18.10;;;10.38;;
73747;SDS011;62056;52.130;5.428;2023-02-10T06:42:48;25.13;;;12.73;;
73747;SDS011;62056;52.130;5.428;2023-02-10T06:45:15;19.52;;;11.00;;
73747;SDS011;62056;52.130;5.428;2023-02-10T06:47:41;18.67;;;11.27;;
73747;SDS011;62056;52.130;5.428;2023-02-10T06:50:08;23.67;;;12.25;;
73747;SDS011;62056;52.130;5.428;2023-02-10T06:52:35;16.90;;;10.45;;
73747;SDS011;62056;52.130;5.428;2023-02-10T06:55:07;28.83;;;12.50;;
73747;SDS011;62056;52.130;5.428;2023-02-10T06:57:34;22.20;;;12.50;;
73747;SDS011;62056;52.130;5.428;2023-02-10T07:00:03;23.15;;;12.38;;
73747;SDS011;62056;52.130;5.428;2023-02-10T07:02:30;25.40;;;12.63;;
73747;SDS011;62056;52.130;5.428;2023-02-10T07:04:57;28.67;;;15.88;;
73747;SDS011;62056;52.130;5.428;2023-02-10T07:07:24;24.60;;;12.03;;
73747;SDS011;62056;52.130;5.428;2023-02-10T07:09:50;27.17;;;13.55;;
73747;SDS011;62056;52.130;5.428;2023-02-10T07:12:19;20.95;;;11.55;;
73747;SDS011;62056;52.130;5.428;2023-02-10T07:14:46;25.27;;;10.48;;
73747;SDS011;62056;52.130;5.428;2023-02-10T07:17:13;21.08;;;10.77;;
73747;SDS011;62056;52.130;5.428;2023-02-10T07:19:40;25.17;;;12.30;;
73747;SDS011;62056;52.130;5.428;2023-02-10T07:22:06;18.25;;;9.45;;
73747;SDS011;62056;52.130;5.428;2023-02-10T07:24:33;24.33;;;11.82;;
73747;SDS011;62056;52.130;5.428;2023-02-10T07:27:00;28.33;;;12.30;;
73747;SDS011;62056;52.130;5.428;2023-02-10T07:29:28;25.02;;;12.30;;
73747;SDS011;62056;52.130;5.428;2023-02-10T07:31:55;19.90;;;10.37;;
73747;SDS011;62056;52.130;5.428;2023-02-10T07:34:24;19.20;;;9.68;;
73747;SDS011;62056;52.130;5.428;2023-02-10T07:36:52;23.63;;;12.15;;
73747;SDS011;62056;52.130;5.428;2023-02-10T07:39:23;16.80;;;9.05;;
73747;SDS011;62056;52.130;5.428;2023-02-10T07:41:50;18.85;;;10.88;;
73747;SDS011;62056;52.130;5.428;2023-02-10T07:44:17;17.70;;;10.30;;
73747;SDS011;62056;52.130;5.428;2023-02-10T07:46:45;20.10;;;8.82;;
73747;SDS011;62056;52.130;5.428;2023-02-10T07:49:11;18.92;;;10.35;;
73747;SDS011;62056;52.130;5.428;2023-02-10T07:51:38;13.50;;;9.13;;
73747;SDS011;62056;52.130;5.428;2023-02-10T07:54:05;12.50;;;7.18;;
73747;SDS011;62056;52.130;5.428;2023-02-10T07:56:32;17.97;;;9.13;;
73747;SDS011;62056;52.130;5.428;2023-02-10T07:58:59;16.15;;;9.90;;
73747;SDS011;62056;52.130;5.428;2023-02-10T08:01:25;18.45;;;10.55;;
73747;SDS011;62056;52.130;5.428;2023-02-10T08:03:52;19.55;;;8.63;;
73747;SDS011;62056;52.130;5.428;2023-02-10T08:06:20;19.73;;;8.02;;
73747;SDS011;62056;52.130;5.428;2023-02-10T08:08:48;17.77;;;9.63;;
73747;SDS011;62056;52.130;5.428;2023-02-10T08:11:15;11.50;;;7.25;;
73747;SDS011;62056;52.130;5.428;2023-02-10T08:13:42;16.30;;;9.43;;
73747;SDS011;62056;52.130;5.428;2023-02-10T08:16:09;16.27;;;10.30;;
73747;SDS011;62056;52.130;5.428;2023-02-10T08:18:38;14.90;;;9.10;;
73747;SDS011;62056;52.130;5.428;2023-02-10T08:21:05;13.07;;;8.57;;
73747;SDS011;62056;52.130;5.428;2023-02-10T08:23:32;16.08;;;8.88;;
73747;SDS011;62056;52.130;5.428;2023-02-10T08:26:02;11.27;;;7.72;;
73747;SDS011;62056;52.130;5.428;2023-02-10T08:28:33;11.50;;;8.15;;
73747;SDS011;62056;52.130;5.428;2023-02-10T08:31:02;12.27;;;8.48;;
73747;SDS011;62056;52.130;5.428;2023-02-10T08:33:30;22.43;;;11.30;;
73747;SDS011;62056;52.130;5.428;2023-02-10T08:36:12;17.27;;;11.00;;
73747;SDS011;62056;52.130;5.428;2023-02-10T08:38:40;15.20;;;9.77;;
73747;SDS011;62056;52.130;5.428;2023-02-10T08:41:07;15.63;;;9.57;;
73747;SDS011;62056;52.130;5.428;2023-02-10T08:43:34;14.63;;;8.35;;
73747;SDS011;62056;52.130;5.428;2023-02-10T08:46:01;17.10;;;10.13;;
73747;SDS011;62056;52.130;5.428;2023-02-10T08:48:28;15.98;;;9.00;;
73747;SDS011;62056;52.130;5.428;2023-02-10T08:50:57;13.43;;;9.20;;
73747;SDS011;62056;52.130;5.428;2023-02-10T08:53:24;10.73;;;6.97;;
73747;SDS011;62056;52.130;5.428;2023-02-10T08:55:55;16.80;;;10.40;;
73747;SDS011;62056;52.130;5.428;2023-02-10T08:58:29;13.60;;;8.70;;
73747;SDS011;62056;52.130;5.428;2023-02-10T09:00:56;15.27;;;8.95;;
73747;SDS011;62056;52.130;5.428;2023-02-10T09:03:23;18.88;;;9.88;;
73747;SDS011;62056;52.130;5.428;2023-02-10T09:05:50;12.55;;;8.27;;
73747;SDS011;62056;52.130;5.428;2023-02-10T09:08:18;17.88;;;10.15;;
73747;SDS011;62056;52.130;5.428;2023-02-10T09:10:45;14.53;;;9.47;;
73747;SDS011;62056;52.130;5.428;2023-02-10T09:13:14;19.48;;;11.10;;
73747;SDS011;62056;52.130;5.428;2023-02-10T09:15:41;14.43;;;8.00;;
73747;SDS011;62056;52.130;5.428;2023-02-10T09:18:09;15.27;;;9.23;;
73747;SDS011;62056;52.130;5.428;2023-02-10T09:20:36;15.60;;;9.70;;
73747;SDS011;62056;52.130;5.428;2023-02-10T09:23:02;12.37;;;8.40;;
73747;SDS011;62056;52.130;5.428;2023-02-10T09:25:31;17.17;;;10.48;;
73747;SDS011;62056;52.130;5.428;2023-02-10T09:27:57;16.83;;;10.60;;
73747;SDS011;62056;52.130;5.428;2023-02-10T09:30:25;17.00;;;10.55;;
73747;SDS011;62056;52.130;5.428;2023-02-10T09:32:54;23.85;;;14.02;;
73747;SDS011;62056;52.130;5.428;2023-02-10T09:35:21;21.43;;;12.60;;
73747;SDS011;62056;52.130;5.428;2023-02-10T09:37:48;20.08;;;10.60;;
73747;SDS011;62056;52.130;5.428;2023-02-10T09:40:17;27.67;;;12.20;;
73747;SDS011;62056;52.130;5.428;2023-02-10T09:42:57;17.13;;;10.02;;
73747;SDS011;62056;52.130;5.428;2023-02-10T09:45:36;18.67;;;12.23;;
73747;SDS011;62056;52.130;5.428;2023-02-10T09:50:52;19.35;;;10.00;;
73747;SDS011;62056;52.130;5.428;2023-02-10T09:53:26;22.80;;;13.15;;
73747;SDS011;62056;52.130;5.428;2023-02-10T09:55:56;23.02;;;11.68;;
73747;SDS011;62056;52.130;5.428;2023-02-10T10:01:03;18.00;;;9.07;;
73747;SDS011;62056;52.130;5.428;2023-02-10T10:03:38;24.38;;;12.32;;
73747;SDS011;62056;52.130;5.428;2023-02-10T10:11:41;18.40;;;11.55;;
73747;SDS011;62056;52.130;5.428;2023-02-10T10:14:15;20.33;;;9.60;;
73747;SDS011;62056;52.130;5.428;2023-02-10T10:22:18;17.02;;;10.60;;
73747;SDS011;62056;52.130;5.428;2023-02-10T10:27:24;16.60;;;10.10;;
73747;SDS011;62056;52.130;5.428;2023-02-10T10:30:07;16.80;;;10.48;;
73747;SDS011;62056;52.130;5.428;2023-02-10T10:35:11;18.63;;;10.32;;
73747;SDS011;62056;52.130;5.428;2023-02-10T10:37:42;15.27;;;10.00;;
73747;SDS011;62056;52.130;5.428;2023-02-10T10:40:14;15.60;;;8.97;;
73747;SDS011;62056;52.130;5.428;2023-02-10T10:42:50;15.43;;;10.63;;
73747;SDS011;62056;52.130;5.428;2023-02-10T10:47:57;17.75;;;8.80;;
73747;SDS011;62056;52.130;5.428;2023-02-10T10:50:31;16.15;;;8.43;;
73747;SDS011;62056;52.130;5.428;2023-02-10T10:52:58;17.13;;;9.80;;
73747;SDS011;62056;52.130;5.428;2023-02-10T10:55:38;20.00;;;12.18;;
73747;SDS011;62056;52.130;5.428;2023-02-10T10:58:27;17.75;;;8.57;;
73747;SDS011;62056;52.130;5.428;2023-02-10T11:00:58;17.60;;;10.75;;
73747;SDS011;62056;52.130;5.428;2023-02-10T11:03:27;17.98;;;10.50;;
73747;SDS011;62056;52.130;5.428;2023-02-10T11:08:40;13.27;;;9.20;;
73747;SDS011;62056;52.130;5.428;2023-02-10T11:11:13;24.17;;;10.38;;
73747;SDS011;62056;52.130;5.428;2023-02-10T11:14:02;22.65;;;12.60;;
73747;SDS011;62056;52.130;5.428;2023-02-10T11:16:40;12.32;;;7.45;;
73747;SDS011;62056;52.130;5.428;2023-02-10T11:19:16;16.57;;;8.83;;
73747;SDS011;62056;52.130;5.428;2023-02-10T11:21:46;21.80;;;9.10;;
73747;SDS011;62056;52.130;5.428;2023-02-10T11:29:30;20.77;;;10.57;;
73747;SDS011;62056;52.130;5.428;2023-02-10T11:32:00;19.53;;;8.77;;
73747;SDS011;62056;52.130;5.428;2023-02-10T11:34:37;19.33;;;8.63;;
73747;SDS011;62056;52.130;5.428;2023-02-10T11:37:10;13.50;;;8.52;;
73747;SDS011;62056;52.130;5.428;2023-02-10T11:39:39;16.67;;;9.10;;
73747;SDS011;62056;52.130;5.428;2023-02-10T11:42:11;16.20;;;9.68;;
73747;SDS011;62056;52.130;5.428;2023-02-10T11:44:41;21.63;;;10.70;;
73747;SDS011;62056;52.130;5.428;2023-02-10T11:47:15;18.55;;;9.10;;
73747;SDS011;62056;52.130;5.428;2023-02-10T11:49:46;20.25;;;11.07;;
73747;SDS011;62056;52.130;5.428;2023-02-10T11:52:16;15.02;;;9.30;;
73747;SDS011;62056;52.130;5.428;2023-02-10T11:54:47;20.40;;;11.15;;
73747;SDS011;62056;52.130;5.428;2023-02-10T11:57:17;13.80;;;8.67;;
73747;SDS011;62056;52.130;5.428;2023-02-10T12:00:14;18.23;;;9.68;;
73747;SDS011;62056;52.130;5.428;2023-02-10T12:10:38;19.33;;;8.97;;
73747;SDS011;62056;52.130;5.428;2023-02-10T12:24:16;19.60;;;7.70;;
73747;SDS011;62056;52.130;5.428;2023-02-10T12:27:22;12.93;;;7.15;;
73747;SDS011;62056;52.130;5.428;2023-02-10T12:32:38;11.60;;;6.50;;
73747;SDS011;62056;52.130;5.428;2023-02-10T12:38:02;25.40;;;9.67;;
73747;SDS011;62056;52.130;5.428;2023-02-10T12:43:35;11.02;;;7.20;;
73747;SDS011;62056;52.130;5.428;2023-02-10T12:49:28;15.00;;;6.55;;
73747;SDS011;62056;52.130;5.428;2023-02-10T13:00:13;20.25;;;7.18;;
73747;SDS011;62056;52.130;5.428;2023-02-10T13:02:53;22.35;;;8.65;;
73747;SDS011;62056;52.130;5.428;2023-02-10T13:05:28;21.73;;;9.30;;
73747;SDS011;62056;52.130;5.428;2023-02-10T13:07:59;15.45;;;7.85;;
73747;SDS011;62056;52.130;5.428;2023-02-10T13:10:41;15.82;;;8.00;;
73747;SDS011;62056;52.130;5.428;2023-02-10T13:13:29;20.80;;;9.18;;
73747;SDS011;62056;52.130;5.428;2023-02-10T13:15:58;20.08;;;9.13;;
73747;SDS011;62056;52.130;5.428;2023-02-10T13:18:32;17.30;;;7.27;;
73747;SDS011;62056;52.130;5.428;2023-02-10T13:21:11;15.95;;;8.27;;
73747;SDS011;62056;52.130;5.428;2023-02-10T13:24:05;16.92;;;8.93;;
73747;SDS011;62056;52.130;5.428;2023-02-10T13:26:50;17.60;;;7.57;;
73747;SDS011;62056;52.130;5.428;2023-02-10T13:35:01;25.80;;;9.23;;
73747;SDS011;62056;52.130;5.428;2023-02-10T13:37:40;17.77;;;8.13;;
73747;SDS011;62056;52.130;5.428;2023-02-10T13:42:51;26.95;;;10.55;;
73747;SDS011;62056;52.130;5.428;2023-02-10T13:45:24;19.73;;;9.65;;
73747;SDS011;62056;52.130;5.428;2023-02-10T13:50:37;15.13;;;8.05;;
73747;SDS011;62056;52.130;5.428;2023-02-10T13:53:30;12.87;;;7.37;;
73747;SDS011;62056;52.130;5.428;2023-02-10T14:02:01;29.15;;;12.45;;
73747;SDS011;62056;52.130;5.428;2023-02-10T14:04:44;28.73;;;10.93;;
73747;SDS011;62056;52.130;5.428;2023-02-10T14:07:17;28.50;;;12.20;;
73747;SDS011;62056;52.130;5.428;2023-02-10T14:10:02;18.55;;;9.52;;
73747;SDS011;62056;52.130;5.428;2023-02-10T14:12:32;22.58;;;10.80;;
73747;SDS011;62056;52.130;5.428;2023-02-10T14:15:18;20.23;;;11.35;;
73747;SDS011;62056;52.130;5.428;2023-02-10T14:17:58;19.50;;;9.80;;
73747;SDS011;62056;52.130;5.428;2023-02-10T14:20:31;22.73;;;8.80;;
73747;SDS011;62056;52.130;5.428;2023-02-10T14:23:01;24.23;;;12.35;;
73747;SDS011;62056;52.130;5.428;2023-02-10T14:25:32;25.73;;;11.95;;
73747;SDS011;62056;52.130;5.428;2023-02-10T14:28:02;31.20;;;15.00;;
73747;SDS011;62056;52.130;5.428;2023-02-10T14:30:32;22.27;;;10.90;;
73747;SDS011;62056;52.130;5.428;2023-02-10T14:33:04;29.80;;;16.17;;
73747;SDS011;62056;52.130;5.428;2023-02-10T14:35:32;29.88;;;15.40;;
73747;SDS011;62056;52.130;5.428;2023-02-10T14:38:04;25.35;;;13.77;;
73747;SDS011;62056;52.130;5.428;2023-02-10T14:40:32;29.77;;;14.10;;
73747;SDS011;62056;52.130;5.428;2023-02-10T14:42:59;28.05;;;13.55;;
73747;SDS011;62056;52.130;5.428;2023-02-10T14:45:27;24.83;;;13.33;;
73747;SDS011;62056;52.130;5.428;2023-02-10T14:47:56;36.65;;;17.70;;
73747;SDS011;62056;52.130;5.428;2023-02-10T14:50:27;27.63;;;16.33;;
73747;SDS011;62056;52.130;5.428;2023-02-10T14:52:56;21.63;;;11.68;;
73747;SDS011;62056;52.130;5.428;2023-02-10T14:55:31;30.25;;;17.35;;
73747;SDS011;62056;52.130;5.428;2023-02-10T14:58:13;27.90;;;16.27;;
73747;SDS011;62056;52.130;5.428;2023-02-10T15:03:20;21.85;;;12.57;;
73747;SDS011;62056;52.130;5.428;2023-02-10T15:05:50;27.38;;;14.98;;
73747;SDS011;62056;52.130;5.428;2023-02-10T15:08:26;22.45;;;13.73;;
73747;SDS011;62056;52.130;5.428;2023-02-10T15:11:13;25.77;;;15.03;;
73747;SDS011;62056;52.130;5.428;2023-02-10T15:14:12;23.58;;;13.02;;
73747;SDS011;62056;52.130;5.428;2023-02-10T15:16:43;27.08;;;13.93;;
73747;SDS011;62056;52.130;5.428;2023-02-10T15:19:15;33.97;;;18.17;;
73747;SDS011;62056;52.130;5.428;2023-02-10T15:21:43;26.42;;;14.85;;
73747;SDS011;62056;52.130;5.428;2023-02-10T15:24:29;28.00;;;16.67;;
73747;SDS011;62056;52.130;5.428;2023-02-10T15:27:13;30.23;;;15.75;;
73747;SDS011;62056;52.130;5.428;2023-02-10T15:29:41;30.30;;;15.50;;
73747;SDS011;62056;52.130;5.428;2023-02-10T15:32:18;30.33;;;16.90;;
73747;SDS011;62056;52.130;5.428;2023-02-10T15:34:47;26.20;;;13.50;;
73747;SDS011;62056;52.130;5.428;2023-02-10T15:37:23;34.67;;;18.97;;
73747;SDS011;62056;52.130;5.428;2023-02-10T15:39:57;31.75;;;16.42;;
73747;SDS011;62056;52.130;5.428;2023-02-10T15:42:29;38.33;;;19.80;;
73747;SDS011;62056;52.130;5.428;2023-02-10T15:45:00;25.80;;;14.32;;
73747;SDS011;62056;52.130;5.428;2023-02-10T15:47:44;34.40;;;18.15;;
73747;SDS011;62056;52.130;5.428;2023-02-10T15:50:13;40.43;;;20.87;;
73747;SDS011;62056;52.130;5.428;2023-02-10T15:52:42;38.17;;;18.75;;
73747;SDS011;62056;52.130;5.428;2023-02-10T15:55:15;30.08;;;17.80;;
73747;SDS011;62056;52.130;5.428;2023-02-10T15:57:50;26.98;;;15.40;;
73747;SDS011;62056;52.130;5.428;2023-02-10T16:00:25;33.47;;;17.08;;
73747;SDS011;62056;52.130;5.428;2023-02-10T16:02:54;27.30;;;16.07;;
73747;SDS011;62056;52.130;5.428;2023-02-10T16:05:22;28.42;;;15.82;;
73747;SDS011;62056;52.130;5.428;2023-02-10T16:07:49;28.10;;;16.10;;
73747;SDS011;62056;52.130;5.428;2023-02-10T16:10:19;23.05;;;13.73;;
73747;SDS011;62056;52.130;5.428;2023-02-10T16:12:48;32.55;;;16.80;;
73747;SDS011;62056;52.130;5.428;2023-02-10T16:15:17;31.40;;;15.87;;
73747;SDS011;62056;52.130;5.428;2023-02-10T16:17:47;26.30;;;14.07;;
73747;SDS011;62056;52.130;5.428;2023-02-10T16:20:17;31.67;;;15.77;;
73747;SDS011;62056;52.130;5.428;2023-02-10T16:22:47;34.22;;;17.17;;
73747;SDS011;62056;52.130;5.428;2023-02-10T16:25:14;30.42;;;16.52;;
73747;SDS011;62056;52.130;5.428;2023-02-10T16:27:42;35.07;;;19.20;;
73747;SDS011;62056;52.130;5.428;2023-02-10T16:30:13;31.52;;;15.93;;
73747;SDS011;62056;52.130;5.428;2023-02-10T16:32:42;29.67;;;16.40;;
73747;SDS011;62056;52.130;5.428;2023-02-10T16:35:09;32.75;;;17.60;;
73747;SDS011;62056;52.130;5.428;2023-02-10T16:37:36;29.92;;;15.50;;
73747;SDS011;62056;52.130;5.428;2023-02-10T16:40:03;23.23;;;12.17;;